createdAt,value
2017-11-06T00:01:00.043Z,7.28
2017-11-06T00:02:03.683Z,7.08
2017-11-06T00:03:07.680Z,7.18
2017-11-06T00:04:11.541Z,7.21
2017-11-06T00:05:15.165Z,7.10
2017-11-06T00:06:18.937Z,7.02
2017-11-06T00:07:22.568Z,7.02
2017-11-06T00:08:26.200Z,7.06
2017-11-06T00:09:30.116Z,7.13
2017-11-06T00:10:33.752Z,7.05
2017-11-06T00:11:37.631Z,7.08
2017-11-06T00:12:41.289Z,7.20
2017-11-06T00:13:44.994Z,7.06
2017-11-06T00:14:48.680Z,7.00
2017-11-06T00:15:52.542Z,6.82
2017-11-06T00:16:56.075Z,6.87
2017-11-06T00:17:59.679Z,6.78
2017-11-06T00:19:03.239Z,6.63
2017-11-06T00:20:06.780Z,6.58
2017-11-06T00:21:10.340Z,6.51
2017-11-06T00:22:13.883Z,6.50
2017-11-06T00:23:17.481Z,6.42
2017-11-06T00:24:21.053Z,6.27
2017-11-06T00:25:24.617Z,6.48
2017-11-06T00:26:28.158Z,6.63
2017-11-06T00:27:31.691Z,6.63
2017-11-06T00:28:35.490Z,6.62
2017-11-06T00:29:39.096Z,6.81
2017-11-06T00:30:42.723Z,6.77
2017-11-06T00:31:46.325Z,6.67
2017-11-06T00:32:49.934Z,6.30
2017-11-06T00:33:53.534Z,6.32
2017-11-06T00:34:57.461Z,6.43
2017-11-06T00:36:01.100Z,6.60
2017-11-06T00:37:04.740Z,6.50
2017-11-06T00:38:08.339Z,6.66
2017-11-06T00:39:12.040Z,6.68
2017-11-06T00:40:15.663Z,6.60
2017-11-06T00:41:19.676Z,6.66
2017-11-06T00:42:23.261Z,6.64
2017-11-06T00:43:26.986Z,6.63
2017-11-06T00:44:30.633Z,6.14
2017-11-06T00:45:34.355Z,6.43
2017-11-06T00:46:38.060Z,6.47
2017-11-06T00:47:41.902Z,6.42
2017-11-06T00:48:45.570Z,6.18
2017-11-06T00:49:49.103Z,6.34
2017-11-06T00:50:52.857Z,6.33
2017-11-06T00:51:56.496Z,6.21
2017-11-06T00:53:00.208Z,6.05
2017-11-06T00:54:04.130Z,5.90
2017-11-06T00:55:07.770Z,5.93
2017-11-06T00:56:11.395Z,6.05
2017-11-06T00:57:14.988Z,5.85
2017-11-06T00:58:18.583Z,5.92
2017-11-06T00:59:22.251Z,5.91
2017-11-06T01:00:26.170Z,5.76
2017-11-06T01:01:29.772Z,6.00
2017-11-06T01:02:33.427Z,5.89
2017-11-06T01:03:37.053Z,5.89
2017-11-06T01:04:40.696Z,5.73
2017-11-06T01:05:44.286Z,5.78
2017-11-06T01:06:48.200Z,5.59
2017-11-06T01:07:51.812Z,5.57
2017-11-06T01:08:55.519Z,5.78
2017-11-06T01:09:59.056Z,5.96
2017-11-06T01:11:02.601Z,5.95
2017-11-06T01:12:06.150Z,6.00
2017-11-06T01:13:09.973Z,6.04
2017-11-06T01:14:13.531Z,6.00
2017-11-06T01:15:17.188Z,5.97
2017-11-06T01:16:20.782Z,5.74
2017-11-06T01:17:24.256Z,5.96
2017-11-06T01:18:27.729Z,6.16
2017-11-06T01:19:31.533Z,6.15
2017-11-06T01:20:35.117Z,6.19
2017-11-06T01:21:39.953Z,6.07
2017-11-06T01:22:43.494Z,5.99
2017-11-06T01:23:47.766Z,6.04
2017-11-06T01:24:51.306Z,6.31
2017-11-06T01:25:56.022Z,6.07
2017-11-06T01:26:59.636Z,5.93
2017-11-06T01:28:03.260Z,5.90
2017-11-06T01:29:06.811Z,6.09
2017-11-06T01:30:10.357Z,6.31
2017-11-06T01:31:13.889Z,6.21
2017-11-06T01:32:17.701Z,6.27
2017-11-06T01:33:21.296Z,6.19
2017-11-06T01:34:25.259Z,6.03
2017-11-06T01:35:28.911Z,5.96
2017-11-06T01:36:32.561Z,5.94
2017-11-06T01:37:36.161Z,6.00
2017-11-06T01:38:39.995Z,5.97
2017-11-06T01:39:43.611Z,5.96
2017-11-06T01:40:47.216Z,6.01
2017-11-06T01:41:50.841Z,5.98
2017-11-06T01:42:54.473Z,6.01
2017-11-06T01:43:58.066Z,5.99
2017-11-06T01:45:01.981Z,5.89
2017-11-06T01:46:05.609Z,5.74
2017-11-06T01:47:09.239Z,5.80
2017-11-06T01:48:12.845Z,5.75
2017-11-06T01:49:16.506Z,5.76
2017-11-06T01:50:20.262Z,5.77
2017-11-06T01:51:24.179Z,5.77
2017-11-06T01:52:27.809Z,5.53
2017-11-06T01:53:31.416Z,5.64
2017-11-06T01:54:35.087Z,5.61
2017-11-06T01:55:38.749Z,5.43
2017-11-06T01:56:42.349Z,5.70
2017-11-06T01:57:49.095Z,5.58
2017-11-06T01:58:52.727Z,5.61
2017-11-06T01:59:56.354Z,5.55
2017-11-06T02:01:00.613Z,5.54
2017-11-06T02:02:04.243Z,5.47
2017-11-06T02:03:07.967Z,5.40
2017-11-06T02:04:11.910Z,5.41
2017-11-06T02:05:15.495Z,5.30
2017-11-06T02:06:19.104Z,5.66
2017-11-06T02:07:22.715Z,5.52
2017-11-06T02:08:26.338Z,5.78
2017-11-06T02:09:29.991Z,5.78
2017-11-06T02:10:33.914Z,5.75
2017-11-06T02:11:37.536Z,5.59
2017-11-06T02:12:41.132Z,5.45
2017-11-06T02:13:44.811Z,5.55
2017-11-06T02:14:48.348Z,5.57
2017-11-06T02:15:51.864Z,5.73
2017-11-06T02:16:56.580Z,6.00
2017-11-06T02:18:00.816Z,5.90
2017-11-06T02:19:04.687Z,5.54
2017-11-06T02:20:08.273Z,5.41
2017-11-06T02:21:11.845Z,5.75
2017-11-06T02:22:15.376Z,5.85
2017-11-06T02:23:19.367Z,5.54
2017-11-06T02:24:22.929Z,5.80
2017-11-06T02:25:26.464Z,6.02
2017-11-06T02:26:30.042Z,5.84
2017-11-06T02:27:33.684Z,6.07
2017-11-06T02:28:37.308Z,6.17
2017-11-06T02:29:41.228Z,6.19
2017-11-06T02:30:46.008Z,6.25
2017-11-06T02:31:49.614Z,6.22
2017-11-06T02:32:53.449Z,6.21
2017-11-06T02:33:57.043Z,6.18
2017-11-06T02:35:00.741Z,6.06
2017-11-06T02:36:05.458Z,5.86
2017-11-06T02:37:09.090Z,6.01
2017-11-06T02:38:12.824Z,6.02
2017-11-06T02:39:16.482Z,6.26
2017-11-06T02:40:20.107Z,6.23
2017-11-06T02:41:23.752Z,6.40
2017-11-06T02:42:27.704Z,6.33
2017-11-06T02:43:31.301Z,6.34
2017-11-06T02:44:34.995Z,6.11
2017-11-06T02:45:38.677Z,6.26
2017-11-06T02:46:42.326Z,6.28
2017-11-06T02:47:46.063Z,6.22
2017-11-06T02:48:49.998Z,6.24
2017-11-06T02:49:53.925Z,6.31
2017-11-06T02:50:57.435Z,6.14
2017-11-06T02:52:01.093Z,6.21
2017-11-06T02:53:05.070Z,6.27
2017-11-06T02:54:08.705Z,6.32
2017-11-06T02:55:12.587Z,6.38
2017-11-06T02:56:16.206Z,6.34
2017-11-06T02:57:19.878Z,6.43
2017-11-06T02:58:23.509Z,6.32
2017-11-06T02:59:27.275Z,6.43
2017-11-06T03:00:30.897Z,6.40
2017-11-06T03:01:34.866Z,6.50
2017-11-06T03:02:38.509Z,6.54
2017-11-06T03:03:42.193Z,6.79
2017-11-06T03:04:45.859Z,6.87
2017-11-06T03:05:49.544Z,6.59
2017-11-06T03:06:53.995Z,6.53
2017-11-06T03:07:57.894Z,6.55
2017-11-06T03:09:01.567Z,6.23
2017-11-06T03:10:05.249Z,6.42
2017-11-06T03:11:08.905Z,6.48
2017-11-06T03:12:12.690Z,6.31
2017-11-06T03:13:16.383Z,6.60
2017-11-06T03:14:20.299Z,6.49
2017-11-06T03:15:24.058Z,6.26
2017-11-06T03:16:27.717Z,6.13
2017-11-06T03:17:31.387Z,6.41
2017-11-06T03:18:35.096Z,6.25
2017-11-06T03:19:38.805Z,6.26
2017-11-06T03:20:42.782Z,6.39
2017-11-06T03:21:46.436Z,6.53
2017-11-06T03:22:50.079Z,6.64
2017-11-06T03:23:53.712Z,6.59
2017-11-06T03:24:57.379Z,6.49
2017-11-06T03:26:10.729Z,6.47
2017-11-06T03:27:14.291Z,6.41
2017-11-06T03:28:17.846Z,6.09
2017-11-06T03:29:21.412Z,6.26
2017-11-06T03:30:25.330Z,6.26
2017-11-06T03:31:28.903Z,6.30
2017-11-06T03:32:32.449Z,6.24
2017-11-06T03:33:36.026Z,6.35
2017-11-06T03:34:39.598Z,6.40
2017-11-06T03:35:43.186Z,6.39
2017-11-06T03:36:46.772Z,6.40
2017-11-06T03:37:50.631Z,6.41
2017-11-06T03:38:54.222Z,6.51
2017-11-06T03:39:57.752Z,6.49
2017-11-06T03:41:01.324Z,6.59
2017-11-06T03:42:04.878Z,6.47
2017-11-06T03:43:08.475Z,6.60
2017-11-06T03:44:12.617Z,6.64
2017-11-06T03:45:16.369Z,6.59
2017-11-06T03:46:20.027Z,6.44
2017-11-06T03:47:23.656Z,6.45
2017-11-06T03:48:27.984Z,6.55
2017-11-06T03:49:31.693Z,6.55
2017-11-06T03:50:35.656Z,6.52
2017-11-06T03:51:39.287Z,6.49
2017-11-06T03:52:42.933Z,6.57
2017-11-06T03:53:46.612Z,6.35
2017-11-06T03:54:50.256Z,6.27
2017-11-06T03:55:53.892Z,6.37
2017-11-06T03:56:57.806Z,6.46
2017-11-06T03:58:01.477Z,6.54
2017-11-06T03:59:05.107Z,6.40
2017-11-06T04:00:08.788Z,6.34
2017-11-06T04:01:12.457Z,6.42
2017-11-06T04:02:16.111Z,5.91
2017-11-06T04:03:20.023Z,6.02
2017-11-06T04:04:23.641Z,6.06
2017-11-06T04:05:27.252Z,5.91
2017-11-06T04:06:30.921Z,5.89
2017-11-06T04:07:34.596Z,5.93
2017-11-06T04:08:38.244Z,5.80
2017-11-06T04:09:42.724Z,5.68
2017-11-06T04:10:46.354Z,5.94
2017-11-06T04:11:50.073Z,5.94
2017-11-06T04:12:53.720Z,6.05
2017-11-06T04:13:57.368Z,6.15
2017-11-06T04:15:01.027Z,6.20
2017-11-06T04:16:05.096Z,5.97
2017-11-06T04:17:08.771Z,6.14
2017-11-06T04:18:12.422Z,6.19
2017-11-06T04:19:16.086Z,5.98
2017-11-06T04:20:19.720Z,5.94
2017-11-06T04:21:23.586Z,6.17
2017-11-06T04:22:27.479Z,6.07
2017-11-06T04:23:32.493Z,5.93
2017-11-06T04:24:36.061Z,6.06
2017-11-06T04:25:39.673Z,6.39
2017-11-06T04:26:43.242Z,6.43
2017-11-06T04:27:47.866Z,6.39
2017-11-06T04:28:51.937Z,6.46
2017-11-06T04:29:56.235Z,6.56
2017-11-06T04:31:00.006Z,6.60
2017-11-06T04:32:03.578Z,6.65
2017-11-06T04:33:07.189Z,6.68
2017-11-06T04:34:10.982Z,6.56
2017-11-06T04:35:14.852Z,6.63
2017-11-06T04:36:18.435Z,6.80
2017-11-06T04:37:22.769Z,7.04
2017-11-06T04:38:26.406Z,6.95
2017-11-06T04:39:30.000Z,7.18
2017-11-06T04:40:34.190Z,7.27
2017-11-06T04:41:38.078Z,7.21
2017-11-06T04:42:41.654Z,7.10
2017-11-06T04:43:45.313Z,6.95
2017-11-06T04:44:48.904Z,6.60
2017-11-06T04:45:52.487Z,6.71
2017-11-06T04:46:56.126Z,6.72
2017-11-06T04:48:00.023Z,6.51
2017-11-06T04:49:03.712Z,6.42
2017-11-06T04:50:07.516Z,6.35
2017-11-06T04:51:11.345Z,6.26
2017-11-06T04:52:15.029Z,6.35
2017-11-06T04:53:18.665Z,6.32
2017-11-06T04:54:22.605Z,6.35
2017-11-06T04:55:26.288Z,6.20
2017-11-06T04:56:29.963Z,6.23
2017-11-06T04:57:33.529Z,6.22
2017-11-06T04:58:37.374Z,6.15
2017-11-06T04:59:41.226Z,6.04
2017-11-06T05:00:45.192Z,6.26
2017-11-06T05:01:48.834Z,6.05
2017-11-06T05:02:52.501Z,5.94
2017-11-06T05:03:56.142Z,5.97
2017-11-06T05:04:59.804Z,5.98
2017-11-06T05:06:03.470Z,6.07
2017-11-06T05:07:06.970Z,5.99
2017-11-06T05:08:10.452Z,6.02
2017-11-06T05:09:13.949Z,6.15
2017-11-06T05:10:17.438Z,6.07
2017-11-06T05:11:20.932Z,6.11
2017-11-06T05:12:24.459Z,5.89
2017-11-06T05:13:28.245Z,5.85
2017-11-06T05:14:31.729Z,5.68
2017-11-06T05:15:36.150Z,5.74
2017-11-06T05:16:39.659Z,5.74
2017-11-06T05:17:43.317Z,5.90
2017-11-06T05:18:46.807Z,5.72
2017-11-06T05:19:50.590Z,5.99
2017-11-06T05:20:54.057Z,6.14
2017-11-06T05:21:57.586Z,6.17
2017-11-06T05:23:01.220Z,6.13
2017-11-06T05:24:04.889Z,6.15
2017-11-06T05:25:08.470Z,6.31
2017-11-06T05:26:12.352Z,6.22
2017-11-06T05:27:15.986Z,6.13
2017-11-06T05:28:20.220Z,6.32
2017-11-06T05:29:23.806Z,6.32
2017-11-06T05:30:27.588Z,6.33
2017-11-06T05:31:31.246Z,6.18
2017-11-06T05:32:35.200Z,6.06
2017-11-06T05:33:39.801Z,5.97
2017-11-06T05:34:43.421Z,5.85
2017-11-06T05:35:47.032Z,5.66
2017-11-06T05:36:50.659Z,5.55
2017-11-06T05:37:54.320Z,5.66
2017-11-06T05:38:58.353Z,5.71
2017-11-06T05:40:01.983Z,5.51
2017-11-06T07:11:23.754Z,6.85
2017-11-06T07:12:27.354Z,7.18
2017-11-06T07:13:30.949Z,7.05
2017-11-06T07:14:34.724Z,7.04
2017-11-06T07:15:38.740Z,6.90
2017-11-06T07:16:42.910Z,6.84
2017-11-06T07:17:46.627Z,6.76
2017-11-06T07:18:50.315Z,6.79
2017-11-06T07:19:54.004Z,6.70
2017-11-06T07:20:59.219Z,6.70
2017-11-06T07:22:02.908Z,5.89
2017-11-06T07:23:07.447Z,6.43
2017-11-06T07:24:11.868Z,6.63
2017-11-06T07:25:15.606Z,6.39
2017-11-06T07:26:19.319Z,6.88
2017-11-06T07:27:23.044Z,6.68
2017-11-06T07:28:26.798Z,6.67
2017-11-06T07:29:30.793Z,6.68
2017-11-06T07:30:34.563Z,6.67
2017-11-06T07:31:38.370Z,6.76
2017-11-06T07:32:42.053Z,6.67
2017-11-06T07:33:45.729Z,6.65
2017-11-06T07:34:49.397Z,6.82
2017-11-06T07:35:53.479Z,6.86
2017-11-06T07:36:57.229Z,6.31
2017-11-06T07:38:00.930Z,6.42
2017-11-06T07:39:04.949Z,6.34
2017-11-06T07:40:08.681Z,6.35
2017-11-06T07:41:12.398Z,6.55
2017-11-06T07:42:16.114Z,6.67
2017-11-06T07:43:19.795Z,6.78
2017-11-06T07:44:23.509Z,6.66
2017-11-06T07:45:27.257Z,6.62
2017-11-06T07:46:30.993Z,6.57
2017-11-06T07:47:34.949Z,6.56
2017-11-06T07:48:38.638Z,6.52
2017-11-06T07:49:42.562Z,6.57
2017-11-06T07:50:46.520Z,6.52
2017-11-06T07:51:50.212Z,6.38
2017-11-06T07:52:53.945Z,5.72
2017-11-06T07:53:58.154Z,6.44
2017-11-06T07:55:01.827Z,6.40
2017-11-06T07:56:05.656Z,6.47
2017-11-06T07:57:09.173Z,6.61
2017-11-06T07:58:12.961Z,6.55
2017-11-06T07:59:16.892Z,6.56
2017-11-06T08:00:20.637Z,6.75
2017-11-06T08:01:24.313Z,6.98
2017-11-06T08:02:28.383Z,7.08
2017-11-06T08:03:32.077Z,7.10
2017-11-06T08:04:35.861Z,7.20
2017-11-06T08:05:39.859Z,7.16
2017-11-06T08:06:43.515Z,6.94
2017-11-06T08:07:47.212Z,7.25
2017-11-06T08:08:50.862Z,7.11
2017-11-06T08:09:55.376Z,7.15
2017-11-06T08:10:59.061Z,6.86
2017-11-06T08:12:03.145Z,6.73
2017-11-06T08:13:06.844Z,6.56
2017-11-06T08:14:10.552Z,6.59
2017-11-06T08:15:14.245Z,6.69
2017-11-06T08:16:18.005Z,6.62
2017-11-06T08:17:21.695Z,6.83
2017-11-06T08:18:25.800Z,6.02
2017-11-06T08:19:29.479Z,6.82
2017-11-06T08:20:33.235Z,6.65
2017-11-06T08:21:37.909Z,6.85
2017-11-06T08:22:41.625Z,6.88
2017-11-06T08:23:45.336Z,6.91
2017-11-06T08:24:49.486Z,6.83
2017-11-06T08:25:53.320Z,6.80
2017-11-06T08:26:57.146Z,6.78
2017-11-06T08:28:00.819Z,6.65
2017-11-06T08:29:05.469Z,6.07
2017-11-06T08:30:10.788Z,6.45
2017-11-06T08:31:14.472Z,6.86
2017-11-06T08:32:18.284Z,6.91
2017-11-06T08:33:21.979Z,6.79
2017-11-06T08:34:25.836Z,7.03
2017-11-06T08:35:29.727Z,6.67
2017-11-06T08:36:33.882Z,7.13
2017-11-06T08:37:37.605Z,6.81
2017-11-06T08:38:41.272Z,6.96
2017-11-06T08:39:44.991Z,7.29
2017-11-06T08:40:48.789Z,7.42
2017-11-06T08:41:52.705Z,7.38
2017-11-06T08:42:56.716Z,7.49
2017-11-06T08:44:00.563Z,7.33
2017-11-06T08:45:04.293Z,7.70
2017-11-06T08:46:08.119Z,7.55
2017-11-06T08:47:11.706Z,7.39
2017-11-06T08:48:15.239Z,7.29
2017-11-06T08:49:19.033Z,7.25
2017-11-06T08:50:22.723Z,7.37
2017-11-06T08:51:26.877Z,7.07
2017-11-06T08:52:30.454Z,7.15
2017-11-06T08:53:34.222Z,7.25
2017-11-06T08:54:37.951Z,7.37
2017-11-06T08:55:41.941Z,7.51
2017-11-06T08:56:46.434Z,7.45
2017-11-06T08:57:56.603Z,7.56
2017-11-06T08:59:05.805Z,7.36
2017-11-06T09:00:09.879Z,7.86
2017-11-06T09:01:13.623Z,7.57
2017-11-06T09:02:17.936Z,6.61
2017-11-06T09:03:21.574Z,7.43
2017-11-06T09:04:25.371Z,7.40
2017-11-06T09:05:29.124Z,7.38
2017-11-06T09:06:32.855Z,7.84
2017-11-06T09:07:37.126Z,7.71
2017-11-06T09:08:40.949Z,7.49
2017-11-06T09:09:45.385Z,7.34
2017-11-06T09:10:49.289Z,7.22
2017-11-06T09:11:53.106Z,6.87
2017-11-06T09:12:57.009Z,6.91
2017-11-06T09:14:01.062Z,6.93
2017-11-06T09:15:04.917Z,7.14
2017-11-06T09:16:08.641Z,7.08
2017-11-06T09:17:12.352Z,7.07
2017-11-06T09:18:16.128Z,7.03
2017-11-06T09:19:19.913Z,7.18
2017-11-06T09:20:24.004Z,7.20
2017-11-06T09:21:27.815Z,7.31
2017-11-06T09:22:31.575Z,7.63
2017-11-06T09:23:35.375Z,7.25
2017-11-06T09:24:39.216Z,7.29
2017-11-06T09:25:43.007Z,7.13
2017-11-06T09:26:47.081Z,7.00
2017-11-06T09:27:50.838Z,7.27
2017-11-06T09:28:54.911Z,7.33
2017-11-06T09:29:58.704Z,7.13
2017-11-06T09:31:03.272Z,6.85
2017-11-06T09:32:07.077Z,6.89
2017-11-06T09:33:11.022Z,6.70
2017-11-06T09:34:14.821Z,7.01
2017-11-06T09:35:18.661Z,6.95
2017-11-06T09:36:22.392Z,6.87
2017-11-06T09:37:26.178Z,6.87
2017-11-06T09:38:29.913Z,6.82
2017-11-06T09:39:34.313Z,7.10
2017-11-06T09:40:38.172Z,6.87
2017-11-06T09:41:42.001Z,6.76
2017-11-06T09:42:45.848Z,6.33
2017-11-06T09:43:50.111Z,6.71
2017-11-06T09:44:53.921Z,6.79
2017-11-06T09:45:58.241Z,6.94
2017-11-06T09:47:02.133Z,6.81
2017-11-06T09:48:05.913Z,7.45
2017-11-06T09:49:09.799Z,7.38
2017-11-06T09:50:13.622Z,7.18
2017-11-06T09:51:17.841Z,6.68
2017-11-06T09:52:22.152Z,7.59
2017-11-06T09:53:26.008Z,7.63
2017-11-06T09:54:29.783Z,7.45
2017-11-06T09:55:33.603Z,7.45
2017-11-06T09:56:37.449Z,7.39
2017-11-06T09:57:42.344Z,7.18
2017-11-06T09:58:46.520Z,6.58
2017-11-06T09:59:50.311Z,7.41
2017-11-06T10:00:54.116Z,7.59
2017-11-06T10:01:57.932Z,7.62
2017-11-06T10:03:01.765Z,7.41
2017-11-06T10:04:06.126Z,7.04
2017-11-06T10:05:10.136Z,7.42
2017-11-06T10:06:14.954Z,7.07
2017-11-06T10:07:18.689Z,6.89
2017-11-06T10:08:22.540Z,7.27
2017-11-06T10:09:26.235Z,7.21
2017-11-06T10:10:29.968Z,7.26
2017-11-06T10:11:34.035Z,7.15
2017-11-06T10:12:37.845Z,7.42
2017-11-06T10:13:41.601Z,7.43
2017-11-06T10:14:45.350Z,7.53
2017-11-06T10:15:49.051Z,7.67
2017-11-06T10:16:52.866Z,7.85
2017-11-06T10:17:57.136Z,8.03
2017-11-06T10:19:01.512Z,7.75
2017-11-06T10:20:09.732Z,8.33
2017-11-06T10:21:13.719Z,8.65
2017-11-06T10:22:17.578Z,8.55
2017-11-06T10:23:21.688Z,8.62
2017-11-06T10:24:25.684Z,8.59
2017-11-06T10:25:29.509Z,8.24
2017-11-06T10:26:33.671Z,8.11
2017-11-06T10:27:37.681Z,8.01
2017-11-06T10:28:41.440Z,7.53
2017-11-06T10:29:45.236Z,8.20
2017-11-06T10:30:49.335Z,8.33
2017-11-06T10:31:53.041Z,8.20
2017-11-06T10:32:56.726Z,8.07
2017-11-06T10:34:00.547Z,8.06
2017-11-06T10:35:04.336Z,7.98
2017-11-06T10:36:08.308Z,8.18
2017-11-06T10:37:12.453Z,8.30
2017-11-06T10:38:16.235Z,8.87
2017-11-06T10:39:20.066Z,8.78
2017-11-06T10:40:23.956Z,9.06
2017-11-06T10:41:27.781Z,9.03
2017-11-06T10:42:31.617Z,8.99
2017-11-06T10:43:35.685Z,8.86
2017-11-06T10:44:39.554Z,8.22
2017-11-06T10:45:43.970Z,8.82
2017-11-06T10:46:51.067Z,9.00
2017-11-06T10:47:55.241Z,8.92
2017-11-06T10:49:00.713Z,8.96
2017-11-06T10:50:05.744Z,8.58
2017-11-06T10:51:09.787Z,9.00
2017-11-06T10:52:13.547Z,8.55
2017-11-06T10:53:17.406Z,7.15
2017-11-06T10:54:21.851Z,7.26
2017-11-06T10:55:25.445Z,8.47
2017-11-06T10:56:29.906Z,6.87
2017-11-06T10:57:34.906Z,8.11
2017-11-06T10:58:38.553Z,8.26
2017-11-06T10:59:42.186Z,7.39
2017-11-06T11:00:46.522Z,8.38
2017-11-06T11:01:51.377Z,8.65
2017-11-06T11:02:55.564Z,8.86
2017-11-06T11:03:59.235Z,9.02
2017-11-06T11:05:04.335Z,9.22
2017-11-06T11:06:08.698Z,9.24
2017-11-06T11:07:12.529Z,8.78
2017-11-06T11:08:16.590Z,9.17
2017-11-06T11:09:20.886Z,8.38
2017-11-06T11:10:24.811Z,8.82
2017-11-06T11:11:28.581Z,9.03
2017-11-06T11:12:32.384Z,8.82
2017-11-06T11:13:36.177Z,8.46
2017-11-06T11:14:39.939Z,8.44
2017-11-06T11:15:44.573Z,8.28
2017-11-06T11:16:48.544Z,8.71
2017-11-06T11:17:52.708Z,8.27
2017-11-06T11:18:58.062Z,8.93
2017-11-06T11:20:02.488Z,8.75
2017-11-06T11:21:06.879Z,9.38
2017-11-06T11:22:12.471Z,9.18
2017-11-06T11:23:16.226Z,9.08
2017-11-06T11:24:19.950Z,9.12
2017-11-06T11:25:24.980Z,9.04
2017-11-06T11:26:29.444Z,8.40
2017-11-06T11:27:33.208Z,8.91
2017-11-06T11:28:36.915Z,8.44
2017-11-06T11:29:40.669Z,8.68
2017-11-06T11:30:45.124Z,8.54
2017-11-06T11:31:49.072Z,8.37
2017-11-06T11:32:53.181Z,7.80
2017-11-06T11:33:57.831Z,8.55
2017-11-06T11:35:01.966Z,9.14
2017-11-06T11:36:06.714Z,9.09
2017-11-06T11:37:10.500Z,7.74
2017-11-06T11:38:14.237Z,9.09
2017-11-06T11:39:17.938Z,9.15
2017-11-06T11:40:22.113Z,8.70
2017-11-06T11:41:26.561Z,9.23
2017-11-06T11:42:30.640Z,9.07
2017-11-06T11:43:34.307Z,8.83
2017-11-06T11:44:38.866Z,8.77
2017-11-06T11:45:43.358Z,8.73
2017-11-06T11:46:51.542Z,8.97
2017-11-06T11:47:55.545Z,9.05
2017-11-06T11:48:59.325Z,9.14
2017-11-06T11:50:03.038Z,8.87
2017-11-06T11:51:06.786Z,9.08
2017-11-06T11:52:10.742Z,9.69
2017-11-06T11:53:14.294Z,9.72
2017-11-06T11:54:18.153Z,9.73
2017-11-06T11:55:21.894Z,9.93
2017-11-06T11:56:25.629Z,9.93
2017-11-06T11:57:29.269Z,10.10
2017-11-06T11:58:33.416Z,10.29
2017-11-06T11:59:37.119Z,10.35
2017-11-06T12:00:41.606Z,9.83
2017-11-06T12:01:45.372Z,9.64
2017-11-06T12:02:50.197Z,9.08
2017-11-06T12:03:54.287Z,9.60
2017-11-06T12:04:59.297Z,9.95
2017-11-06T12:06:07.600Z,10.01
2017-11-06T12:07:11.278Z,10.17
2017-11-06T12:08:15.277Z,10.29
2017-11-06T12:09:20.274Z,10.29
2017-11-06T12:10:25.610Z,10.30
2017-11-06T12:11:30.925Z,10.32
2017-11-06T12:12:34.629Z,10.41
2017-11-06T12:13:38.439Z,10.11
2017-11-06T12:14:42.257Z,8.13
2017-11-06T12:15:46.091Z,9.88
2017-11-06T12:16:50.306Z,9.80
2017-11-06T12:17:55.190Z,9.66
2017-11-06T12:19:00.997Z,9.74
2017-11-06T12:20:06.817Z,9.79
2017-11-06T12:21:10.523Z,9.66
2017-11-06T12:22:14.204Z,9.71
2017-11-06T12:23:17.930Z,9.06
2017-11-06T12:24:22.911Z,9.88
2017-11-06T12:25:27.261Z,10.09
2017-11-06T12:26:30.980Z,10.25
2017-11-06T12:27:35.090Z,9.78
2017-11-06T12:28:39.899Z,10.43
2017-11-06T12:29:44.168Z,10.05
2017-11-06T12:30:47.821Z,10.64
2017-11-06T12:31:51.501Z,10.59
2017-11-06T12:32:55.898Z,10.22
2017-11-06T12:34:01.391Z,10.44
2017-11-06T12:35:05.176Z,10.49
2017-11-06T12:36:09.294Z,10.67
2017-11-06T12:37:13.232Z,10.74
2017-11-06T12:38:16.916Z,10.81
2017-11-06T12:39:21.005Z,10.91
2017-11-06T12:40:24.918Z,10.98
2017-11-06T12:41:28.634Z,10.85
2017-11-06T12:42:32.732Z,11.27
2017-11-06T12:43:36.509Z,10.36
2017-11-06T12:44:40.892Z,10.92
2017-11-06T12:45:45.274Z,11.01
2017-11-06T12:46:49.124Z,10.89
2017-11-06T12:47:52.834Z,10.96
2017-11-06T12:48:57.169Z,10.85
2017-11-06T12:50:00.962Z,10.57
2017-11-06T12:51:04.718Z,10.95
2017-11-06T12:52:08.458Z,11.10
2017-11-06T12:53:13.950Z,10.96
2017-11-06T12:54:17.741Z,10.83
2017-11-06T12:55:21.778Z,10.72
2017-11-06T12:56:25.556Z,10.50
2017-11-06T12:57:29.380Z,10.69
2017-11-06T12:58:33.262Z,10.74
2017-11-06T12:59:37.066Z,10.38
2017-11-06T13:00:41.341Z,9.89
2017-11-06T13:01:45.569Z,9.92
2017-11-06T13:02:49.396Z,9.84
2017-11-06T13:03:53.224Z,9.99
2017-11-06T13:04:57.265Z,10.03
2017-11-06T13:06:01.291Z,10.16
2017-11-06T13:07:05.255Z,10.34
2017-11-06T13:08:14.495Z,10.01
2017-11-06T13:09:18.452Z,10.13
2017-11-06T13:10:22.665Z,9.80
2017-11-06T13:11:28.353Z,9.63
2017-11-06T13:12:32.691Z,9.62
2017-11-06T13:13:36.494Z,9.73
2017-11-06T13:14:40.666Z,9.77
2017-11-06T13:15:44.537Z,9.64
2017-11-06T13:16:48.412Z,9.72
2017-11-06T13:17:52.396Z,9.73
2017-11-06T13:18:56.500Z,9.62
2017-11-06T13:20:00.349Z,9.67
2017-11-06T13:21:04.620Z,9.70
2017-11-06T13:22:08.498Z,9.66
2017-11-06T13:23:12.390Z,9.61
2017-11-06T13:24:16.433Z,8.23
2017-11-06T13:25:21.148Z,9.20
2017-11-06T13:26:25.805Z,9.47
2017-11-06T13:27:31.060Z,9.54
2017-11-06T13:28:34.860Z,9.61
2017-11-06T13:29:38.548Z,9.76
2017-11-06T13:30:42.266Z,9.65
2017-11-06T13:31:47.132Z,9.71
2017-11-06T13:32:51.112Z,8.23
2017-11-06T13:33:58.070Z,9.69
2017-11-06T13:35:02.209Z,9.84
2017-11-06T13:36:07.234Z,10.08
2017-11-06T13:37:11.685Z,10.10
2017-11-06T13:38:16.216Z,9.88
2017-11-06T13:39:21.292Z,9.96
2017-11-06T13:40:25.156Z,10.14
2017-11-06T13:41:29.342Z,10.29
2017-11-06T13:42:33.173Z,10.23
2017-11-06T13:43:37.062Z,9.46
2017-11-06T13:44:43.530Z,10.65
2017-11-06T13:45:47.981Z,10.43
2017-11-06T13:46:51.774Z,10.27
2017-11-06T13:47:55.824Z,10.32
2017-11-06T13:48:59.805Z,10.20
2017-11-06T13:50:03.705Z,10.41
2017-11-06T13:51:07.589Z,10.26
2017-11-06T13:52:11.556Z,10.48
2017-11-06T13:53:15.655Z,10.21
2017-11-06T13:54:19.736Z,10.22
2017-11-06T13:55:23.462Z,10.20
2017-11-06T13:56:27.406Z,10.01
2017-11-06T13:57:31.276Z,9.97
2017-11-06T13:58:36.379Z,9.96
2017-11-06T13:59:40.510Z,9.72
2017-11-06T14:00:44.350Z,9.55
2017-11-06T14:01:47.996Z,9.40
2017-11-06T14:02:51.646Z,9.35
2017-11-06T14:03:55.349Z,9.38
2017-11-06T14:04:59.430Z,9.35
2017-11-06T14:06:03.526Z,9.15
2017-11-06T14:07:07.403Z,9.07
2017-11-06T14:08:11.295Z,8.62
2017-11-06T14:09:15.113Z,8.72
2017-11-06T14:10:19.094Z,9.15
2017-11-06T14:11:24.326Z,8.40
2017-11-06T14:12:29.483Z,8.65
2017-11-06T14:13:34.352Z,9.28
2017-11-06T14:14:39.278Z,9.41
2017-11-06T14:15:43.401Z,9.33
2017-11-06T14:16:48.813Z,9.39
2017-11-06T14:17:54.219Z,9.31
2017-11-06T14:18:58.342Z,9.53
2017-11-06T14:20:02.292Z,9.41
2017-11-06T14:21:06.271Z,9.72
2017-11-06T14:22:10.044Z,9.87
2017-11-06T14:23:14.113Z,9.96
2017-11-06T14:24:19.121Z,9.10
2017-11-06T14:25:24.224Z,9.99
2017-11-06T14:26:29.709Z,10.21
2017-11-06T14:27:34.031Z,10.46
2017-11-06T14:28:37.917Z,11.15
2017-11-06T14:29:41.462Z,11.08
2017-11-06T14:30:45.402Z,10.61
2017-11-06T14:31:49.017Z,10.47
2017-11-06T14:32:53.240Z,10.53
2017-11-06T14:33:57.932Z,10.64
2017-11-06T14:35:02.176Z,10.70
2017-11-06T14:36:07.398Z,10.64
2017-11-06T14:37:14.737Z,10.36
2017-11-06T14:38:19.618Z,10.01
2017-11-06T14:39:24.965Z,9.59
2017-11-06T14:40:30.523Z,9.58
2017-11-06T14:41:36.061Z,9.65
2017-11-06T14:42:41.215Z,9.50
2017-11-06T14:43:46.515Z,9.71
2017-11-06T14:44:50.398Z,9.64
2017-11-06T14:45:55.604Z,9.56
2017-11-06T14:48:02.290Z,9.57
2017-11-06T14:49:07.237Z,9.60
2017-11-06T14:50:12.670Z,9.73
2017-11-06T14:51:17.064Z,9.73
2017-11-06T14:52:22.655Z,9.75
2017-11-06T14:53:26.751Z,9.79
2017-11-06T14:54:31.490Z,9.45
2017-11-06T14:55:36.921Z,8.94
2017-11-06T14:56:40.785Z,9.26
2017-11-06T14:57:44.546Z,9.23
2017-11-06T14:58:48.301Z,9.16
2017-11-06T14:59:52.167Z,9.26
2017-11-06T15:00:57.113Z,9.28
2017-11-06T15:02:01.534Z,8.95
2017-11-06T15:03:06.872Z,9.05
2017-11-06T15:04:10.731Z,8.48
2017-11-06T15:05:15.976Z,9.01
2017-11-06T15:06:19.711Z,9.02
2017-11-06T15:07:23.940Z,9.03
2017-11-06T15:08:27.648Z,8.95
2017-11-06T15:09:32.334Z,9.22
2017-11-06T15:10:38.060Z,9.28
2017-11-06T15:11:42.336Z,7.82
2017-11-06T15:12:48.144Z,9.09
2017-11-06T15:13:54.364Z,9.07
2017-11-06T15:14:59.845Z,8.85
2017-11-06T15:16:07.420Z,8.86
2017-11-06T15:17:14.006Z,9.24
2017-11-06T15:18:17.856Z,8.68
2017-11-06T15:19:21.735Z,8.10
2017-11-06T15:20:26.107Z,9.15
2017-11-06T15:21:31.605Z,8.68
2017-11-06T15:22:35.681Z,9.15
2017-11-06T15:23:40.063Z,8.92
2017-11-06T15:24:45.140Z,8.77
2017-11-06T15:25:48.896Z,9.21
2017-11-06T15:26:53.039Z,9.46
2017-11-06T15:27:57.647Z,9.49
2017-11-06T15:29:02.533Z,9.44
2017-11-06T15:30:06.565Z,9.42
2017-11-06T15:31:13.630Z,9.38
2017-11-06T15:32:18.910Z,8.49
2017-11-06T15:33:23.999Z,7.82
2017-11-06T15:34:28.393Z,9.13
2017-11-06T15:35:33.571Z,9.09
2017-11-06T15:36:37.782Z,9.03
2017-11-06T15:37:42.851Z,8.85
2017-11-06T15:38:46.634Z,8.71
2017-11-06T15:39:51.472Z,8.47
2017-11-06T15:40:55.406Z,8.84